sensor_id;sensor_type;location;lat;lon;timestamp;P1;durP1;ratioP1;P2;durP2;ratioP2
71610;SDS011;59459;51.172;6.682;2024-02-26T00:00:55;2.30;;;0.97;;
71610;SDS011;59459;51.172;6.682;2024-02-26T00:03:20;2.43;;;1.00;;
71610;SDS011;59459;51.172;6.682;2024-02-26T00:05:46;3.97;;;0.97;;
71610;SDS011;59459;51.172;6.682;2024-02-26T00:08:11;5.03;;;1.13;;
71610;SDS011;59459;51.172;6.682;2024-02-26T00:10:36;3.87;;;0.90;;
71610;SDS011;59459;51.172;6.682;2024-02-26T00:13:01;1.97;;;0.90;;
71610;SDS011;59459;51.172;6.682;2024-02-26T00:15:26;3.07;;;0.90;;
71610;SDS011;59459;51.172;6.682;2024-02-26T00:17:52;5.10;;;1.35;;
71610;SDS011;59459;51.172;6.682;2024-02-26T00:20:18;6.70;;;1.60;;
71610;SDS011;59459;51.172;6.682;2024-02-26T00:22:43;7.93;;;1.63;;
71610;SDS011;59459;51.172;6.682;2024-02-26T00:25:08;5.90;;;1.17;;
71610;SDS011;59459;51.172;6.682;2024-02-26T00:27:33;4.93;;;1.30;;
71610;SDS011;59459;51.172;6.682;2024-02-26T00:29:59;4.90;;;1.73;;
71610;SDS011;59459;51.172;6.682;2024-02-26T00:32:24;3.67;;;1.33;;
71610;SDS011;59459;51.172;6.682;2024-02-26T00:34:49;3.70;;;1.20;;
71610;SDS011;59459;51.172;6.682;2024-02-26T00:37:15;2.85;;;1.08;;
71610;SDS011;59459;51.172;6.682;2024-02-26T00:39:40;3.90;;;1.00;;
71610;SDS011;59459;51.172;6.682;2024-02-26T00:42:05;3.57;;;1.10;;
71610;SDS011;59459;51.172;6.682;2024-02-26T00:44:31;2.53;;;1.00;;
71610;SDS011;59459;51.172;6.682;2024-02-26T00:46:56;4.47;;;0.80;;
71610;SDS011;59459;51.172;6.682;2024-02-26T00:49:22;2.40;;;0.93;;
71610;SDS011;59459;51.172;6.682;2024-02-26T00:51:47;2.13;;;0.80;;
71610;SDS011;59459;51.172;6.682;2024-02-26T00:54:12;3.87;;;1.30;;
71610;SDS011;59459;51.172;6.682;2024-02-26T00:56:37;3.83;;;1.60;;
71610;SDS011;59459;51.172;6.682;2024-02-26T00:59:03;5.17;;;1.50;;
71610;SDS011;59459;51.172;6.682;2024-02-26T01:01:28;3.00;;;0.97;;
71610;SDS011;59459;51.172;6.682;2024-02-26T01:03:53;2.73;;;1.03;;
71610;SDS011;59459;51.172;6.682;2024-02-26T01:06:18;3.10;;;1.00;;
71610;SDS011;59459;51.172;6.682;2024-02-26T01:08:43;4.90;;;0.83;;
71610;SDS011;59459;51.172;6.682;2024-02-26T01:11:09;3.03;;;0.77;;
71610;SDS011;59459;51.172;6.682;2024-02-26T01:13:34;4.33;;;1.10;;
71610;SDS011;59459;51.172;6.682;2024-02-26T01:15:59;3.37;;;1.07;;
71610;SDS011;59459;51.172;6.682;2024-02-26T01:18:25;2.55;;;1.02;;
71610;SDS011;59459;51.172;6.682;2024-02-26T01:20:51;2.47;;;0.70;;
71610;SDS011;59459;51.172;6.682;2024-02-26T01:23:16;4.20;;;0.90;;
71610;SDS011;59459;51.172;6.682;2024-02-26T01:25:41;3.50;;;0.73;;
71610;SDS011;59459;51.172;6.682;2024-02-26T01:28:07;3.47;;;1.00;;
71610;SDS011;59459;51.172;6.682;2024-02-26T01:30:32;2.47;;;0.70;;
71610;SDS011;59459;51.172;6.682;2024-02-26T01:32:58;1.30;;;0.40;;
71610;SDS011;59459;51.172;6.682;2024-02-26T01:35:23;2.20;;;0.80;;
71610;SDS011;59459;51.172;6.682;2024-02-26T01:37:48;1.80;;;0.63;;
71610;SDS011;59459;51.172;6.682;2024-02-26T01:40:14;1.50;;;0.47;;
71610;SDS011;59459;51.172;6.682;2024-02-26T01:42:44;2.03;;;0.75;;
71610;SDS011;59459;51.172;6.682;2024-02-26T01:45:12;1.77;;;0.60;;
71610;SDS011;59459;51.172;6.682;2024-02-26T01:47:40;1.85;;;0.63;;
71610;SDS011;59459;51.172;6.682;2024-02-26T01:50:05;2.07;;;0.67;;
71610;SDS011;59459;51.172;6.682;2024-02-26T01:52:31;2.93;;;0.53;;
71610;SDS011;59459;51.172;6.682;2024-02-26T01:54:57;1.17;;;0.50;;
71610;SDS011;59459;51.172;6.682;2024-02-26T01:57:22;2.00;;;0.53;;
71610;SDS011;59459;51.172;6.682;2024-02-26T01:59:48;3.60;;;0.77;;
71610;SDS011;59459;51.172;6.682;2024-02-26T02:02:13;1.53;;;0.50;;
71610;SDS011;59459;51.172;6.682;2024-02-26T02:04:40;2.10;;;0.60;;
71610;SDS011;59459;51.172;6.682;2024-02-26T02:07:05;1.67;;;0.50;;
71610;SDS011;59459;51.172;6.682;2024-02-26T02:09:31;1.33;;;0.40;;
71610;SDS011;59459;51.172;6.682;2024-02-26T02:11:56;1.87;;;0.73;;
71610;SDS011;59459;51.172;6.682;2024-02-26T02:14:23;2.55;;;0.50;;
71610;SDS011;59459;51.172;6.682;2024-02-26T02:16:48;1.33;;;0.60;;
71610;SDS011;59459;51.172;6.682;2024-02-26T02:19:14;2.70;;;0.63;;
71610;SDS011;59459;51.172;6.682;2024-02-26T02:21:39;2.13;;;0.60;;
71610;SDS011;59459;51.172;6.682;2024-02-26T02:24:04;1.33;;;0.43;;
71610;SDS011;59459;51.172;6.682;2024-02-26T02:26:29;1.30;;;0.40;;
71610;SDS011;59459;51.172;6.682;2024-02-26T02:28:55;2.40;;;0.50;;
71610;SDS011;59459;51.172;6.682;2024-02-26T02:31:20;2.90;;;0.63;;
71610;SDS011;59459;51.172;6.682;2024-02-26T02:33:45;2.60;;;0.47;;
71610;SDS011;59459;51.172;6.682;2024-02-26T02:36:10;0.93;;;0.50;;
71610;SDS011;59459;51.172;6.682;2024-02-26T02:38:36;1.30;;;0.53;;
71610;SDS011;59459;51.172;6.682;2024-02-26T02:41:02;1.50;;;0.52;;
71610;SDS011;59459;51.172;6.682;2024-02-26T02:43:27;2.73;;;1.00;;
71610;SDS011;59459;51.172;6.682;2024-02-26T02:45:52;2.90;;;0.70;;
71610;SDS011;59459;51.172;6.682;2024-02-26T02:48:17;2.23;;;0.60;;
71610;SDS011;59459;51.172;6.682;2024-02-26T02:50:43;2.77;;;0.53;;
71610;SDS011;59459;51.172;6.682;2024-02-26T02:53:08;2.27;;;0.80;;
71610;SDS011;59459;51.172;6.682;2024-02-26T02:55:33;1.83;;;0.70;;
71610;SDS011;59459;51.172;6.682;2024-02-26T02:57:58;1.53;;;0.60;;
71610;SDS011;59459;51.172;6.682;2024-02-26T03:00:23;3.57;;;0.90;;
71610;SDS011;59459;51.172;6.682;2024-02-26T03:02:49;2.10;;;0.70;;
71610;SDS011;59459;51.172;6.682;2024-02-26T03:05:14;2.17;;;0.60;;
71610;SDS011;59459;51.172;6.682;2024-02-26T03:07:40;3.33;;;0.90;;
71610;SDS011;59459;51.172;6.682;2024-02-26T03:10:05;3.47;;;0.87;;
71610;SDS011;59459;51.172;6.682;2024-02-26T03:12:30;1.83;;;0.70;;
71610;SDS011;59459;51.172;6.682;2024-02-26T03:14:56;3.50;;;0.52;;
71610;SDS011;59459;51.172;6.682;2024-02-26T03:17:21;1.87;;;0.67;;
71610;SDS011;59459;51.172;6.682;2024-02-26T03:19:49;2.03;;;0.80;;
71610;SDS011;59459;51.172;6.682;2024-02-26T03:22:18;1.83;;;0.70;;
71610;SDS011;59459;51.172;6.682;2024-02-26T03:24:43;2.77;;;0.80;;
71610;SDS011;59459;51.172;6.682;2024-02-26T03:27:08;1.83;;;0.50;;
71610;SDS011;59459;51.172;6.682;2024-02-26T03:29:37;1.50;;;0.68;;
71610;SDS011;59459;51.172;6.682;2024-02-26T03:32:02;2.13;;;0.80;;
71610;SDS011;59459;51.172;6.682;2024-02-26T03:34:28;2.60;;;0.90;;
71610;SDS011;59459;51.172;6.682;2024-02-26T03:36:53;3.03;;;0.70;;
71610;SDS011;59459;51.172;6.682;2024-02-26T03:39:18;3.00;;;0.90;;
71610;SDS011;59459;51.172;6.682;2024-02-26T03:41:44;1.47;;;0.67;;
71610;SDS011;59459;51.172;6.682;2024-02-26T03:44:09;2.77;;;0.63;;
71610;SDS011;59459;51.172;6.682;2024-02-26T03:46:34;2.85;;;0.95;;
71610;SDS011;59459;51.172;6.682;2024-02-26T03:49:00;2.23;;;0.80;;
71610;SDS011;59459;51.172;6.682;2024-02-26T03:51:25;4.40;;;0.77;;
71610;SDS011;59459;51.172;6.682;2024-02-26T03:53:51;1.70;;;0.80;;
71610;SDS011;59459;51.172;6.682;2024-02-26T03:56:16;2.00;;;0.67;;
71610;SDS011;59459;51.172;6.682;2024-02-26T03:58:42;2.80;;;1.00;;
71610;SDS011;59459;51.172;6.682;2024-02-26T04:01:07;2.63;;;0.70;;
71610;SDS011;59459;51.172;6.682;2024-02-26T04:03:33;3.28;;;0.70;;
71610;SDS011;59459;51.172;6.682;2024-02-26T04:05:58;2.13;;;0.70;;
71610;SDS011;59459;51.172;6.682;2024-02-26T04:08:23;2.73;;;0.67;;
71610;SDS011;59459;51.172;6.682;2024-02-26T04:10:48;2.60;;;0.80;;
71610;SDS011;59459;51.172;6.682;2024-02-26T04:13:13;2.37;;;0.60;;
71610;SDS011;59459;51.172;6.682;2024-02-26T04:15:39;2.27;;;0.70;;
71610;SDS011;59459;51.172;6.682;2024-02-26T04:18:04;3.43;;;0.70;;
71610;SDS011;59459;51.172;6.682;2024-02-26T04:20:30;3.13;;;0.80;;
71610;SDS011;59459;51.172;6.682;2024-02-26T04:22:55;2.23;;;0.70;;
71610;SDS011;59459;51.172;6.682;2024-02-26T04:25:20;1.57;;;0.60;;
71610;SDS011;59459;51.172;6.682;2024-02-26T04:27:45;1.90;;;0.80;;
71610;SDS011;59459;51.172;6.682;2024-02-26T04:30:11;2.13;;;0.70;;
71610;SDS011;59459;51.172;6.682;2024-02-26T04:32:36;1.58;;;0.52;;
71610;SDS011;59459;51.172;6.682;2024-02-26T04:35:04;2.43;;;0.53;;
71610;SDS011;59459;51.172;6.682;2024-02-26T04:37:29;3.70;;;0.93;;
71610;SDS011;59459;51.172;6.682;2024-02-26T04:39:59;2.17;;;0.73;;
71610;SDS011;59459;51.172;6.682;2024-02-26T04:42:24;2.88;;;1.15;;
71610;SDS011;59459;51.172;6.682;2024-02-26T04:44:49;4.97;;;0.70;;
71610;SDS011;59459;51.172;6.682;2024-02-26T04:47:15;3.23;;;0.67;;
71610;SDS011;59459;51.172;6.682;2024-02-26T04:49:40;2.50;;;0.90;;
71610;SDS011;59459;51.172;6.682;2024-02-26T04:52:05;4.30;;;0.73;;
71610;SDS011;59459;51.172;6.682;2024-02-26T04:54:31;3.17;;;0.90;;
71610;SDS011;59459;51.172;6.682;2024-02-26T04:56:56;3.70;;;0.87;;
71610;SDS011;59459;51.172;6.682;2024-02-26T04:59:21;2.73;;;1.03;;
71610;SDS011;59459;51.172;6.682;2024-02-26T05:01:46;4.20;;;1.13;;
71610;SDS011;59459;51.172;6.682;2024-02-26T05:04:11;2.50;;;1.00;;
71610;SDS011;59459;51.172;6.682;2024-02-26T05:06:37;3.37;;;0.90;;
71610;SDS011;59459;51.172;6.682;2024-02-26T05:09:02;3.63;;;1.10;;
71610;SDS011;59459;51.172;6.682;2024-02-26T05:11:28;4.13;;;1.10;;
71610;SDS011;59459;51.172;6.682;2024-02-26T05:13:53;2.77;;;0.90;;
71610;SDS011;59459;51.172;6.682;2024-02-26T05:16:19;2.57;;;1.07;;
71610;SDS011;59459;51.172;6.682;2024-02-26T05:18:46;4.03;;;0.98;;
71610;SDS011;59459;51.172;6.682;2024-02-26T05:21:11;2.63;;;0.83;;
71610;SDS011;59459;51.172;6.682;2024-02-26T05:23:36;3.37;;;1.30;;
71610;SDS011;59459;51.172;6.682;2024-02-26T05:26:01;2.60;;;1.23;;
71610;SDS011;59459;51.172;6.682;2024-02-26T05:28:26;2.40;;;0.70;;
71610;SDS011;59459;51.172;6.682;2024-02-26T05:30:52;2.50;;;1.00;;
71610;SDS011;59459;51.172;6.682;2024-02-26T05:33:17;5.80;;;1.50;;
71610;SDS011;59459;51.172;6.682;2024-02-26T05:35:42;3.53;;;1.03;;
71610;SDS011;59459;51.172;6.682;2024-02-26T05:38:07;2.57;;;1.20;;
71610;SDS011;59459;51.172;6.682;2024-02-26T05:40:32;3.90;;;1.53;;
71610;SDS011;59459;51.172;6.682;2024-02-26T05:42:58;4.07;;;1.63;;
71610;SDS011;59459;51.172;6.682;2024-02-26T05:45:23;4.77;;;1.40;;
71610;SDS011;59459;51.172;6.682;2024-02-26T05:47:48;3.67;;;1.30;;
71610;SDS011;59459;51.172;6.682;2024-02-26T05:50:14;3.73;;;1.53;;
71610;SDS011;59459;51.172;6.682;2024-02-26T05:52:40;4.15;;;1.40;;
71610;SDS011;59459;51.172;6.682;2024-02-26T05:55:06;3.03;;;1.17;;
71610;SDS011;59459;51.172;6.682;2024-02-26T05:57:31;2.83;;;1.38;;
71610;SDS011;59459;51.172;6.682;2024-02-26T05:59:57;7.13;;;1.57;;
71610;SDS011;59459;51.172;6.682;2024-02-26T06:02:25;5.35;;;1.50;;
71610;SDS011;59459;51.172;6.682;2024-02-26T06:04:51;4.90;;;1.73;;
71610;SDS011;59459;51.172;6.682;2024-02-26T06:07:16;4.37;;;1.63;;
71610;SDS011;59459;51.172;6.682;2024-02-26T06:09:41;7.33;;;1.60;;
71610;SDS011;59459;51.172;6.682;2024-02-26T06:12:06;4.33;;;1.47;;
71610;SDS011;59459;51.172;6.682;2024-02-26T06:14:32;5.30;;;1.60;;
71610;SDS011;59459;51.172;6.682;2024-02-26T06:16:57;3.90;;;1.77;;
71610;SDS011;59459;51.172;6.682;2024-02-26T06:19:22;4.90;;;1.70;;
71610;SDS011;59459;51.172;6.682;2024-02-26T06:21:47;6.30;;;2.10;;
71610;SDS011;59459;51.172;6.682;2024-02-26T06:24:12;7.07;;;2.03;;
71610;SDS011;59459;51.172;6.682;2024-02-26T06:26:38;6.03;;;2.40;;
71610;SDS011;59459;51.172;6.682;2024-02-26T06:29:03;6.50;;;2.70;;
71610;SDS011;59459;51.172;6.682;2024-02-26T06:31:28;5.67;;;1.93;;
71610;SDS011;59459;51.172;6.682;2024-02-26T06:33:54;7.28;;;2.03;;
71610;SDS011;59459;51.172;6.682;2024-02-26T06:36:21;9.98;;;2.45;;
71610;SDS011;59459;51.172;6.682;2024-02-26T06:38:47;6.73;;;2.23;;
71610;SDS011;59459;51.172;6.682;2024-02-26T06:41:12;7.87;;;2.47;;
71610;SDS011;59459;51.172;6.682;2024-02-26T06:43:37;8.10;;;3.40;;
71610;SDS011;59459;51.172;6.682;2024-02-26T06:46:02;11.37;;;2.73;;
71610;SDS011;59459;51.172;6.682;2024-02-26T06:48:28;7.37;;;3.03;;
71610;SDS011;59459;51.172;6.682;2024-02-26T06:50:53;7.27;;;2.40;;
71610;SDS011;59459;51.172;6.682;2024-02-26T06:53:18;6.97;;;2.90;;
71610;SDS011;59459;51.172;6.682;2024-02-26T06:55:43;7.20;;;2.50;;
71610;SDS011;59459;51.172;6.682;2024-02-26T06:58:09;6.47;;;2.37;;
71610;SDS011;59459;51.172;6.682;2024-02-26T07:00:34;6.13;;;2.50;;
71610;SDS011;59459;51.172;6.682;2024-02-26T07:02:59;7.47;;;3.03;;
71610;SDS011;59459;51.172;6.682;2024-02-26T07:05:25;4.47;;;2.23;;
71610;SDS011;59459;51.172;6.682;2024-02-26T07:07:50;5.18;;;2.20;;
71610;SDS011;59459;51.172;6.682;2024-02-26T07:10:15;4.80;;;2.33;;
71610;SDS011;59459;51.172;6.682;2024-02-26T07:12:40;5.80;;;2.20;;
71610;SDS011;59459;51.172;6.682;2024-02-26T07:15:06;5.73;;;2.13;;
71610;SDS011;59459;51.172;6.682;2024-02-26T07:17:33;5.95;;;2.20;;
71610;SDS011;59459;51.172;6.682;2024-02-26T07:19:59;5.37;;;2.33;;
71610;SDS011;59459;51.172;6.682;2024-02-26T07:22:24;6.33;;;2.00;;
71610;SDS011;59459;51.172;6.682;2024-02-26T07:24:49;7.43;;;2.60;;
71610;SDS011;59459;51.172;6.682;2024-02-26T07:27:14;7.28;;;2.90;;
71610;SDS011;59459;51.172;6.682;2024-02-26T07:29:42;6.27;;;2.23;;
71610;SDS011;59459;51.172;6.682;2024-02-26T07:32:08;6.75;;;2.72;;
71610;SDS011;59459;51.172;6.682;2024-02-26T07:34:33;6.60;;;1.77;;
71610;SDS011;59459;51.172;6.682;2024-02-26T07:36:58;9.27;;;2.90;;
71610;SDS011;59459;51.172;6.682;2024-02-26T07:39:23;8.23;;;2.57;;
71610;SDS011;59459;51.172;6.682;2024-02-26T07:41:49;7.77;;;2.60;;
71610;SDS011;59459;51.172;6.682;2024-02-26T07:44:16;9.95;;;2.97;;
71610;SDS011;59459;51.172;6.682;2024-02-26T07:46:41;8.10;;;2.33;;
71610;SDS011;59459;51.172;6.682;2024-02-26T07:49:07;6.57;;;2.60;;
71610;SDS011;59459;51.172;6.682;2024-02-26T07:51:33;8.07;;;2.25;;
71610;SDS011;59459;51.172;6.682;2024-02-26T07:53:58;8.07;;;3.13;;
71610;SDS011;59459;51.172;6.682;2024-02-26T07:56:23;6.93;;;3.20;;
71610;SDS011;59459;51.172;6.682;2024-02-26T07:58:48;7.03;;;2.60;;
71610;SDS011;59459;51.172;6.682;2024-02-26T08:01:14;8.20;;;2.70;;
71610;SDS011;59459;51.172;6.682;2024-02-26T08:03:39;5.70;;;2.23;;
71610;SDS011;59459;51.172;6.682;2024-02-26T08:06:05;9.00;;;2.25;;
71610;SDS011;59459;51.172;6.682;2024-02-26T08:08:30;7.63;;;2.77;;
71610;SDS011;59459;51.172;6.682;2024-02-26T08:10:55;10.63;;;2.30;;
71610;SDS011;59459;51.172;6.682;2024-02-26T08:13:20;7.40;;;2.40;;
71610;SDS011;59459;51.172;6.682;2024-02-26T08:15:46;6.13;;;2.07;;
71610;SDS011;59459;51.172;6.682;2024-02-26T08:18:11;4.97;;;1.93;;
71610;SDS011;59459;51.172;6.682;2024-02-26T08:20:36;6.20;;;2.20;;
71610;SDS011;59459;51.172;6.682;2024-02-26T08:23:02;6.53;;;2.43;;
71610;SDS011;59459;51.172;6.682;2024-02-26T08:25:27;7.97;;;2.87;;
71610;SDS011;59459;51.172;6.682;2024-02-26T08:27:52;6.93;;;2.87;;
71610;SDS011;59459;51.172;6.682;2024-02-26T08:30:18;7.57;;;1.90;;
71610;SDS011;59459;51.172;6.682;2024-02-26T08:32:43;8.87;;;2.30;;
71610;SDS011;59459;51.172;6.682;2024-02-26T08:35:09;5.17;;;1.87;;
71610;SDS011;59459;51.172;6.682;2024-02-26T08:37:34;9.20;;;2.53;;
71610;SDS011;59459;51.172;6.682;2024-02-26T08:39:59;5.30;;;2.20;;
71610;SDS011;59459;51.172;6.682;2024-02-26T08:42:25;6.50;;;2.43;;
71610;SDS011;59459;51.172;6.682;2024-02-26T08:44:50;4.77;;;2.17;;
71610;SDS011;59459;51.172;6.682;2024-02-26T08:47:15;6.60;;;2.13;;
71610;SDS011;59459;51.172;6.682;2024-02-26T08:49:44;6.53;;;2.40;;
71610;SDS011;59459;51.172;6.682;2024-02-26T08:52:10;5.75;;;2.00;;
71610;SDS011;59459;51.172;6.682;2024-02-26T08:54:35;5.27;;;2.07;;
71610;SDS011;59459;51.172;6.682;2024-02-26T08:57:00;10.50;;;2.43;;
71610;SDS011;59459;51.172;6.682;2024-02-26T08:59:25;6.33;;;2.07;;
71610;SDS011;59459;51.172;6.682;2024-02-26T09:01:50;5.73;;;2.07;;
71610;SDS011;59459;51.172;6.682;2024-02-26T09:04:16;9.63;;;1.93;;
71610;SDS011;59459;51.172;6.682;2024-02-26T09:06:41;5.93;;;2.27;;
71610;SDS011;59459;51.172;6.682;2024-02-26T09:09:06;5.93;;;1.83;;
71610;SDS011;59459;51.172;6.682;2024-02-26T09:11:31;5.70;;;1.93;;
71610;SDS011;59459;51.172;6.682;2024-02-26T09:13:57;5.93;;;1.97;;
71610;SDS011;59459;51.172;6.682;2024-02-26T09:16:22;6.40;;;1.80;;
71610;SDS011;59459;51.172;6.682;2024-02-26T09:18:48;5.55;;;2.10;;
71610;SDS011;59459;51.172;6.682;2024-02-26T09:21:13;6.97;;;2.40;;
71610;SDS011;59459;51.172;6.682;2024-02-26T09:23:39;5.33;;;1.93;;
71610;SDS011;59459;51.172;6.682;2024-02-26T09:26:05;7.03;;;2.20;;
71610;SDS011;59459;51.172;6.682;2024-02-26T09:28:30;4.00;;;1.67;;
71610;SDS011;59459;51.172;6.682;2024-02-26T09:30:59;7.18;;;2.83;;
71610;SDS011;59459;51.172;6.682;2024-02-26T09:33:25;6.27;;;1.90;;
71610;SDS011;59459;51.172;6.682;2024-02-26T09:35:50;5.73;;;2.00;;
71610;SDS011;59459;51.172;6.682;2024-02-26T09:38:15;7.67;;;2.37;;
71610;SDS011;59459;51.172;6.682;2024-02-26T09:40:40;9.87;;;1.70;;
71610;SDS011;59459;51.172;6.682;2024-02-26T09:43:05;5.33;;;1.93;;
71610;SDS011;59459;51.172;6.682;2024-02-26T09:45:34;6.28;;;2.13;;
71610;SDS011;59459;51.172;6.682;2024-02-26T09:48:00;7.67;;;1.87;;
71610;SDS011;59459;51.172;6.682;2024-02-26T09:50:26;4.75;;;1.73;;
71610;SDS011;59459;51.172;6.682;2024-02-26T09:52:51;4.90;;;1.73;;
71610;SDS011;59459;51.172;6.682;2024-02-26T09:55:17;6.38;;;1.48;;
71610;SDS011;59459;51.172;6.682;2024-02-26T09:57:45;4.87;;;1.60;;
71610;SDS011;59459;51.172;6.682;2024-02-26T10:00:11;5.78;;;1.55;;
71610;SDS011;59459;51.172;6.682;2024-02-26T10:02:39;4.75;;;1.60;;
71610;SDS011;59459;51.172;6.682;2024-02-26T10:05:05;5.50;;;1.47;;
71610;SDS011;59459;51.172;6.682;2024-02-26T10:07:32;6.00;;;2.13;;
71610;SDS011;59459;51.172;6.682;2024-02-26T10:09:57;7.20;;;1.87;;
71610;SDS011;59459;51.172;6.682;2024-02-26T10:12:23;6.15;;;1.98;;
71610;SDS011;59459;51.172;6.682;2024-02-26T10:14:50;5.40;;;1.80;;
71610;SDS011;59459;51.172;6.682;2024-02-26T10:17:16;4.35;;;1.27;;
71610;SDS011;59459;51.172;6.682;2024-02-26T10:19:41;6.87;;;2.30;;
71610;SDS011;59459;51.172;6.682;2024-02-26T10:22:06;4.53;;;1.67;;
71610;SDS011;59459;51.172;6.682;2024-02-26T10:24:32;5.70;;;1.80;;
71610;SDS011;59459;51.172;6.682;2024-02-26T10:26:57;6.60;;;2.10;;
71610;SDS011;59459;51.172;6.682;2024-02-26T10:29:23;4.50;;;1.70;;
71610;SDS011;59459;51.172;6.682;2024-02-26T10:31:50;6.70;;;2.03;;
71610;SDS011;59459;51.172;6.682;2024-02-26T10:34:15;6.20;;;1.95;;
71610;SDS011;59459;51.172;6.682;2024-02-26T10:36:41;5.37;;;2.50;;
71610;SDS011;59459;51.172;6.682;2024-02-26T10:39:06;5.68;;;1.88;;
71610;SDS011;59459;51.172;6.682;2024-02-26T10:41:34;6.80;;;2.43;;
71610;SDS011;59459;51.172;6.682;2024-02-26T10:44:00;6.78;;;2.30;;
71610;SDS011;59459;51.172;6.682;2024-02-26T10:46:25;6.27;;;2.40;;
71610;SDS011;59459;51.172;6.682;2024-02-26T10:48:50;6.13;;;2.57;;
71610;SDS011;59459;51.172;6.682;2024-02-26T10:51:16;7.15;;;2.33;;
71610;SDS011;59459;51.172;6.682;2024-02-26T10:53:42;7.80;;;2.05;;
71610;SDS011;59459;51.172;6.682;2024-02-26T10:56:08;7.27;;;2.20;;
71610;SDS011;59459;51.172;6.682;2024-02-26T10:58:35;8.57;;;3.00;;
71610;SDS011;59459;51.172;6.682;2024-02-26T11:01:00;8.73;;;3.00;;
71610;SDS011;59459;51.172;6.682;2024-02-26T11:03:26;7.88;;;2.85;;
71610;SDS011;59459;51.172;6.682;2024-02-26T11:05:51;7.37;;;2.70;;
71610;SDS011;59459;51.172;6.682;2024-02-26T11:08:18;10.73;;;3.08;;
71610;SDS011;59459;51.172;6.682;2024-02-26T11:10:44;9.30;;;3.03;;
71610;SDS011;59459;51.172;6.682;2024-02-26T11:13:12;8.57;;;2.72;;
71610;SDS011;59459;51.172;6.682;2024-02-26T11:15:39;7.20;;;2.80;;
71610;SDS011;59459;51.172;6.682;2024-02-26T11:18:04;8.33;;;2.80;;
71610;SDS011;59459;51.172;6.682;2024-02-26T11:20:30;6.88;;;2.67;;
71610;SDS011;59459;51.172;6.682;2024-02-26T11:22:57;9.80;;;2.85;;
71610;SDS011;59459;51.172;6.682;2024-02-26T11:25:22;8.73;;;3.33;;
71610;SDS011;59459;51.172;6.682;2024-02-26T11:27:49;6.67;;;2.70;;
71610;SDS011;59459;51.172;6.682;2024-02-26T11:30:15;10.80;;;2.97;;
71610;SDS011;59459;51.172;6.682;2024-02-26T11:32:45;7.82;;;3.67;;
71610;SDS011;59459;51.172;6.682;2024-02-26T11:35:11;8.63;;;3.38;;
71610;SDS011;59459;51.172;6.682;2024-02-26T11:37:40;9.02;;;3.92;;
71610;SDS011;59459;51.172;6.682;2024-02-26T11:40:05;9.30;;;2.80;;
71610;SDS011;59459;51.172;6.682;2024-02-26T11:42:35;9.65;;;3.47;;
71610;SDS011;59459;51.172;6.682;2024-02-26T11:45:37;7.57;;;3.23;;
71610;SDS011;59459;51.172;6.682;2024-02-26T11:47:55;7.95;;;3.22;;
71610;SDS011;59459;51.172;6.682;2024-02-26T11:50:34;9.00;;;3.67;;
71610;SDS011;59459;51.172;6.682;2024-02-26T11:55:43;9.15;;;4.05;;
71610;SDS011;59459;51.172;6.682;2024-02-26T11:58:08;11.57;;;4.00;;
71610;SDS011;59459;51.172;6.682;2024-02-26T12:00:34;9.73;;;4.10;;
71610;SDS011;59459;51.172;6.682;2024-02-26T12:02:59;10.13;;;4.35;;
71610;SDS011;59459;51.172;6.682;2024-02-26T12:05:32;8.80;;;4.23;;
71610;SDS011;59459;51.172;6.682;2024-02-26T12:08:04;10.75;;;4.55;;
71610;SDS011;59459;51.172;6.682;2024-02-26T12:10:38;10.80;;;4.50;;
71610;SDS011;59459;51.172;6.682;2024-02-26T12:13:22;8.45;;;3.85;;
71610;SDS011;59459;51.172;6.682;2024-02-26T12:15:55;10.97;;;4.57;;
71610;SDS011;59459;51.172;6.682;2024-02-26T12:18:21;11.13;;;4.93;;
71610;SDS011;59459;51.172;6.682;2024-02-26T12:20:47;8.35;;;4.07;;
71610;SDS011;59459;51.172;6.682;2024-02-26T12:23:15;10.20;;;4.17;;
71610;SDS011;59459;51.172;6.682;2024-02-26T12:25:43;11.32;;;4.28;;
71610;SDS011;59459;51.172;6.682;2024-02-26T12:28:09;12.77;;;4.33;;
71610;SDS011;59459;51.172;6.682;2024-02-26T12:30:34;12.60;;;4.73;;
71610;SDS011;59459;51.172;6.682;2024-02-26T12:33:00;11.80;;;4.47;;
71610;SDS011;59459;51.172;6.682;2024-02-26T12:35:26;11.53;;;4.97;;
71610;SDS011;59459;51.172;6.682;2024-02-26T12:37:52;10.80;;;4.45;;
71610;SDS011;59459;51.172;6.682;2024-02-26T12:40:18;10.27;;;4.75;;
71610;SDS011;59459;51.172;6.682;2024-02-26T12:42:44;13.10;;;4.97;;
71610;SDS011;59459;51.172;6.682;2024-02-26T12:45:09;11.37;;;4.67;;
71610;SDS011;59459;51.172;6.682;2024-02-26T12:47:38;15.15;;;4.95;;
71610;SDS011;59459;51.172;6.682;2024-02-26T12:50:04;13.13;;;5.32;;
71610;SDS011;59459;51.172;6.682;2024-02-26T12:52:30;13.47;;;5.40;;
71610;SDS011;59459;51.172;6.682;2024-02-26T12:54:55;13.10;;;4.72;;
71610;SDS011;59459;51.172;6.682;2024-02-26T12:57:20;13.00;;;5.70;;
71610;SDS011;59459;51.172;6.682;2024-02-26T12:59:46;13.43;;;5.43;;
71610;SDS011;59459;51.172;6.682;2024-02-26T13:02:11;12.53;;;5.90;;
71610;SDS011;59459;51.172;6.682;2024-02-26T13:04:36;14.30;;;6.17;;
71610;SDS011;59459;51.172;6.682;2024-02-26T13:07:05;13.00;;;7.15;;
71610;SDS011;59459;51.172;6.682;2024-02-26T13:09:33;15.70;;;6.20;;
71610;SDS011;59459;51.172;6.682;2024-02-26T13:12:03;13.70;;;5.85;;
71610;SDS011;59459;51.172;6.682;2024-02-26T13:14:29;17.02;;;6.82;;
71610;SDS011;59459;51.172;6.682;2024-02-26T13:16:56;15.80;;;6.15;;
71610;SDS011;59459;51.172;6.682;2024-02-26T13:19:22;14.83;;;7.00;;
71610;SDS011;59459;51.172;6.682;2024-02-26T13:21:47;15.00;;;6.63;;
71610;SDS011;59459;51.172;6.682;2024-02-26T13:24:13;16.17;;;6.63;;
71610;SDS011;59459;51.172;6.682;2024-02-26T13:26:38;14.57;;;6.53;;
71610;SDS011;59459;51.172;6.682;2024-02-26T13:29:03;17.13;;;7.87;;
71610;SDS011;59459;51.172;6.682;2024-02-26T13:31:28;15.80;;;7.23;;
71610;SDS011;59459;51.172;6.682;2024-02-26T13:33:54;16.23;;;7.17;;
71610;SDS011;59459;51.172;6.682;2024-02-26T13:36:21;16.65;;;7.45;;
71610;SDS011;59459;51.172;6.682;2024-02-26T13:38:52;16.02;;;6.65;;
71610;SDS011;59459;51.172;6.682;2024-02-26T13:41:18;17.13;;;8.25;;
71610;SDS011;59459;51.172;6.682;2024-02-26T13:43:43;18.73;;;7.40;;
71610;SDS011;59459;51.172;6.682;2024-02-26T13:46:09;16.60;;;7.75;;
71610;SDS011;59459;51.172;6.682;2024-02-26T13:48:35;17.53;;;7.93;;
71610;SDS011;59459;51.172;6.682;2024-02-26T13:51:01;17.53;;;7.00;;
71610;SDS011;59459;51.172;6.682;2024-02-26T13:53:26;16.57;;;6.83;;
71610;SDS011;59459;51.172;6.682;2024-02-26T13:55:51;14.57;;;7.10;;
71610;SDS011;59459;51.172;6.682;2024-02-26T13:58:16;16.13;;;7.87;;
71610;SDS011;59459;51.172;6.682;2024-02-26T14:00:45;15.98;;;7.15;;
71610;SDS011;59459;51.172;6.682;2024-02-26T14:03:10;14.73;;;7.17;;
71610;SDS011;59459;51.172;6.682;2024-02-26T14:05:35;23.47;;;8.17;;
71610;SDS011;59459;51.172;6.682;2024-02-26T14:08:00;18.90;;;8.30;;
71610;SDS011;59459;51.172;6.682;2024-02-26T14:10:26;18.10;;;7.93;;
71610;SDS011;59459;51.172;6.682;2024-02-26T14:12:51;18.73;;;8.17;;
71610;SDS011;59459;51.172;6.682;2024-02-26T14:15:16;19.27;;;8.40;;
71610;SDS011;59459;51.172;6.682;2024-02-26T14:17:42;20.57;;;8.13;;
71610;SDS011;59459;51.172;6.682;2024-02-26T14:20:08;16.20;;;7.82;;
71610;SDS011;59459;51.172;6.682;2024-02-26T14:22:34;18.10;;;8.23;;
71610;SDS011;59459;51.172;6.682;2024-02-26T14:24:59;16.90;;;7.80;;
71610;SDS011;59459;51.172;6.682;2024-02-26T14:27:27;18.90;;;8.07;;
71610;SDS011;59459;51.172;6.682;2024-02-26T14:29:52;16.53;;;7.33;;
71610;SDS011;59459;51.172;6.682;2024-02-26T14:32:20;18.15;;;7.20;;
71610;SDS011;59459;51.172;6.682;2024-02-26T14:34:45;16.13;;;7.13;;
71610;SDS011;59459;51.172;6.682;2024-02-26T14:37:10;16.73;;;8.53;;
71610;SDS011;59459;51.172;6.682;2024-02-26T14:39:37;17.27;;;7.27;;